Time;durP1;ratioP1;P1;durP2;ratioP2;P2;SDS_P1;SDS_P2;PMS_P1;PMS_P2;Temp;Humidity;BMP_temperature;BMP_pressure;BME280_temperature;BME280_humidity;BME280_pressure;Samples;Min_cycle;Max_cycle;Signal;HPM_P1;HPM_P2
2022/01/15 00:01:51;;;;;;;12.88;6.28;;;;;;;-11.99;63.71;96117.28;4960821;28;20086;-80
2022/01/15 00:04:18;;;;;;;13.52;6.25;;;;;;;-11.86;63.03;96107.28;4976520;28;20524;-80
2022/01/15 00:06:44;;;;;;;11.55;6.18;;;;;;;-11.83;62.68;96113.09;4960342;28;20479;-79
2022/01/15 00:09:10;;;;;;;9.15;4.85;;;;;;;-11.80;62.49;96101.84;4992501;28;20129;-79
2022/01/15 00:11:37;;;;;;;11.68;5.97;;;;;;;-11.75;62.68;96099.88;4960178;28;20085;-79
2022/01/15 00:14:24;;;;;;;14.10;5.93;;;;;;;-11.69;62.17;96099.63;4960391;28;20116;-80
2022/01/15 00:17:04;;;;;;;12.27;6.50;;;;;;;-11.79;62.42;96093.19;4966798;28;20053;-81
2022/01/15 00:19:41;;;;;;;12.60;6.05;;;;;;;-11.67;62.32;96095.22;4964195;28;20050;-80
2022/01/15 00:22:14;;;;;;;7.95;5.55;;;;;;;-11.57;61.98;96093.91;4947154;28;20042;-79
2022/01/15 00:24:40;;;;;;;11.50;6.15;;;;;;;-11.55;61.69;96089.53;4976287;28;20092;-79
2022/01/15 00:27:06;;;;;;;15.57;6.68;;;;;;;-11.56;62.04;96089.59;4960424;28;20054;-80
2022/01/15 00:29:33;;;;;;;10.80;4.60;;;;;;;-11.56;61.89;96085.28;4960141;28;20050;-80
2022/01/15 00:31:59;;;;;;;13.38;5.32;;;;;;;-11.54;61.37;96078.31;4944291;28;20053;-81
2022/01/15 00:34:26;;;;;;;11.80;6.32;;;;;;;-11.46;61.76;96069.41;4976294;28;20050;-80
2022/01/15 00:36:52;;;;;;;11.65;5.55;;;;;;;-11.40;61.81;96056.22;4928905;28;20138;-80
2022/01/15 00:39:18;;;;;;;10.85;6.10;;;;;;;-11.37;60.90;96053.53;4976015;28;20509;-80
2022/01/15 00:41:45;;;;;;;4.43;3.17;;;;;;;-11.63;61.23;96052.13;4944269;28;20513;-81
2022/01/15 00:44:10;;;;;;;10.88;6.28;;;;;;;-11.63;61.26;96058.09;4976698;28;20132;-80
2022/01/15 00:46:36;;;;;;;8.38;5.03;;;;;;;-11.70;61.72;96061.88;4977226;28;20476;-81
2022/01/15 00:49:03;;;;;;;13.57;6.20;;;;;;;-11.66;62.07;96065.13;4976113;28;20057;-79
2022/01/15 00:51:28;;;;;;;14.80;6.68;;;;;;;-11.64;62.17;96053.88;4960237;28;20490;-79
2022/01/15 00:53:54;;;;;;;9.77;6.55;;;;;;;-11.52;61.89;96055.88;4976758;28;20042;-79
2022/01/15 00:56:20;;;;;;;9.00;5.97;;;;;;;-11.44;61.92;96057.28;4934585;28;20074;-80
2022/01/15 00:58:46;;;;;;;16.15;6.82;;;;;;;-11.44;61.59;96046.97;4981117;28;20552;-79
2022/01/15 01:01:12;;;;;;;11.10;6.05;;;;;;;-11.58;61.61;96047.63;4993552;28;20045;-79
2022/01/15 01:03:38;;;;;;;17.60;6.75;;;;;;;-11.55;61.78;96040.56;4976478;28;20085;-80
2022/01/15 01:06:04;;;;;;;15.57;5.40;;;;;;;-11.55;61.52;96021.69;4928716;28;20078;-80
2022/01/15 01:08:30;;;;;;;15.18;6.60;;;;;;;-11.49;61.60;96016.25;4928512;28;20042;-78
2022/01/15 01:10:58;;;;;;;13.00;6.38;;;;;;;-11.41;61.69;96015.91;4976134;28;20046;-79
2022/01/15 01:24:10;;;;;;;14.57;7.13;;;;;;;-11.39;61.99;95993.50;4964793;28;20046;-79
2022/01/15 01:31:51;;;;;;;10.10;4.65;;;;;;;-11.34;62.75;95973.47;4997670;28;20551;-79
2022/01/15 01:34:17;;;;;;;13.20;6.38;;;;;;;-11.41;63.12;95951.47;4968823;28;20056;-79
2022/01/15 01:37:33;;;;;;;7.72;4.68;;;;;;;-11.36;63.97;95972.69;4950394;28;20054;-81
2022/01/15 01:39:55;;;;;;;6.35;3.97;;;;;;;-11.37;64.46;95947.84;4959407;28;20090;-79
2022/01/15 01:45:13;;;;;;;8.07;4.40;;;;;;;-11.21;64.74;95941.03;4979245;28;20050;-80
2022/01/15 01:47:41;;;;;;;14.38;6.45;;;;;;;-11.19;65.19;95923.75;4978927;28;20046;-80
2022/01/15 01:50:18;;;;;;;9.23;5.70;;;;;;;-11.12;65.29;95909.66;4979104;28;20046;-80
2022/01/15 01:52:46;;;;;;;8.93;5.60;;;;;;;-11.08;65.54;95908.59;4947188;28;20049;-80
2022/01/15 01:55:12;;;;;;;16.55;6.68;;;;;;;-10.96;65.29;95909.72;4963119;28;20121;-79
2022/01/15 01:57:39;;;;;;;11.48;5.60;;;;;;;-10.86;65.01;95910.09;4947107;28;20046;-78
2022/01/15 02:00:10;;;;;;;12.18;5.80;;;;;;;-10.80;64.84;95902.03;4979688;28;20069;-80
2022/01/15 02:02:42;;;;;;;12.15;6.78;;;;;;;-10.81;64.87;95895.22;4979799;28;20042;-80
2022/01/15 02:05:09;;;;;;;15.88;5.95;;;;;;;-10.75;65.29;95892.34;4963505;28;20046;-78
2022/01/15 02:07:36;;;;;;;10.88;5.93;;;;;;;-10.70;64.94;95905.84;4963653;28;20046;-81
2022/01/15 02:10:05;;;;;;;10.88;6.10;;;;;;;-10.85;65.48;95885.97;4963682;28;20056;-81
2022/01/15 02:12:30;;;;;;;8.63;5.20;;;;;;;-10.83;65.30;95885.00;4963686;28;20141;-79
2022/01/15 02:14:57;;;;;;;7.38;4.55;;;;;;;-10.81;65.37;95884.91;4932192;28;20145;-81
2022/01/15 02:17:23;;;;;;;11.13;5.25;;;;;;;-10.77;65.44;95874.34;4931455;28;20133;-80
2022/01/15 02:25:12;;;;;;;9.45;5.40;;;;;;;-10.59;64.70;95857.06;4964942;28;20042;-79
2022/01/15 02:27:38;;;;;;;11.90;6.38;;;;;;;-10.52;64.67;95855.84;4962513;28;20046;-80
2022/01/15 02:30:04;;;;;;;10.45;5.82;;;;;;;-10.52;64.12;95848.09;4962514;28;20053;-80
2022/01/15 02:32:32;;;;;;;10.52;5.57;;;;;;;-10.50;64.68;95852.34;4931486;28;20070;-79
2022/01/15 02:34:59;;;;;;;15.20;6.15;;;;;;;-10.50;64.31;95839.44;4962408;28;20042;-79
2022/01/15 02:37:25;;;;;;;11.63;5.30;;;;;;;-10.46;64.44;95846.09;4977728;28;20478;-79
2022/01/15 02:39:51;;;;;;;7.13;4.35;;;;;;;-10.44;64.46;95844.28;4962348;28;20116;-80
2022/01/15 02:42:17;;;;;;;10.18;5.70;;;;;;;-10.39;64.78;95837.13;4962207;28;20502;-79
2022/01/15 02:44:44;;;;;;;10.82;5.70;;;;;;;-10.34;64.97;95845.44;4930498;28;20054;-79
2022/01/15 02:49:54;;;;;;;8.18;5.53;;;;;;;-10.13;64.86;95822.78;4995489;28;20096;-79
2022/01/15 02:52:20;;;;;;;8.10;4.65;;;;;;;-10.05;64.58;95825.78;4977881;28;20516;-80
2022/01/15 02:54:46;;;;;;;9.52;5.20;;;;;;;-10.07;64.63;95804.38;4930513;28;20070;-80
2022/01/15 02:57:12;;;;;;;12.13;5.90;;;;;;;-10.08;64.54;95806.13;4977976;28;20129;-78
2022/01/15 02:59:38;;;;;;;12.27;5.75;;;;;;;-10.04;64.91;95799.00;4946185;28;20038;-79
2022/01/15 03:02:04;;;;;;;10.15;5.50;;;;;;;-9.91;64.95;95792.25;4961915;28;20053;-81
2022/01/15 03:04:30;;;;;;;8.23;5.25;;;;;;;-9.80;64.71;95783.91;4945777;28;20042;-80
2022/01/15 03:06:56;;;;;;;8.43;4.43;;;;;;;-9.86;64.57;95785.06;4961679;28;20046;-80
2022/01/15 03:09:22;;;;;;;10.45;5.13;;;;;;;-9.80;64.37;95761.47;4961143;28;20046;-80
2022/01/15 03:11:48;;;;;;;12.55;5.43;;;;;;;-9.79;64.68;95754.56;4965433;28;20201;-80
2022/01/15 03:14:18;;;;;;;8.07;5.05;;;;;;;-9.79;64.78;95765.72;4952561;28;20050;-81
2022/01/15 03:16:44;;;;;;;11.15;4.85;;;;;;;-9.77;64.88;95752.72;5006551;28;20081;-82
2022/01/15 03:19:10;;;;;;;7.00;4.25;;;;;;;-9.80;65.50;95753.72;4970701;28;20498;-80
2022/01/15 03:21:36;;;;;;;13.13;5.00;;;;;;;-9.71;65.45;95752.38;4994830;28;20081;-80
2022/01/15 03:24:03;;;;;;;9.27;5.65;;;;;;;-9.66;65.61;95750.38;4977342;28;20494;-80
2022/01/15 03:26:29;;;;;;;8.48;4.13;;;;;;;-9.54;65.58;95757.41;4977429;28;20050;-80
2022/01/15 03:28:55;;;;;;;7.47;3.80;;;;;;;-9.48;65.42;95751.03;4993199;28;20101;-79
2022/01/15 03:31:21;;;;;;;11.05;5.93;;;;;;;-9.48;65.55;95737.28;4945887;28;20189;-80
2022/01/15 03:33:47;;;;;;;11.00;5.20;;;;;;;-9.50;65.67;95728.81;5001560;28;20196;-79
2022/01/15 03:36:13;;;;;;;10.68;5.63;;;;;;;-9.39;65.81;95734.16;4963862;28;20042;-81
2022/01/15 03:38:39;;;;;;;17.00;5.40;;;;;;;-9.41;65.71;95723.06;4961509;28;20454;-80
2022/01/15 03:41:05;;;;;;;8.88;4.85;;;;;;;-9.39;65.84;95739.34;4977137;28;20052;-80
2022/01/15 03:43:31;;;;;;;8.80;4.85;;;;;;;-9.27;65.75;95735.19;4913599;28;20413;-80
2022/01/15 03:45:57;;;;;;;10.02;5.65;;;;;;;-9.25;65.74;95731.63;4977205;28;20046;-80
2022/01/15 03:48:25;;;;;;;6.82;5.03;;;;;;;-9.28;66.00;95716.28;4993935;28;20205;-80
2022/01/15 03:50:51;;;;;;;12.88;5.43;;;;;;;-9.19;65.85;95722.63;4945558;28;20132;-80
2022/01/15 03:53:20;;;;;;;9.82;4.88;;;;;;;-9.19;66.20;95726.06;4976817;28;20464;-80
2022/01/15 03:55:46;;;;;;;5.97;4.03;;;;;;;-9.14;66.38;95731.81;4961207;28;20054;-80
2022/01/15 03:58:12;;;;;;;10.93;4.82;;;;;;;-9.21;66.59;95725.34;4994194;28;20137;-80
2022/01/15 04:00:38;;;;;;;9.30;3.95;;;;;;;-9.22;66.65;95739.16;4976430;28;20089;-80
2022/01/15 04:03:04;;;;;;;6.40;3.70;;;;;;;-9.22;66.82;95749.50;4929303;28;20054;-81
2022/01/15 04:05:31;;;;;;;7.78;3.80;;;;;;;-9.16;67.11;95733.63;4928793;28;20096;-82
2022/01/15 04:07:57;;;;;;;8.70;5.03;;;;;;;-9.10;67.23;95725.53;4944896;28;20113;-81
2022/01/15 04:10:23;;;;;;;9.73;4.25;;;;;;;-9.07;67.44;95732.25;4977882;28;20042;-84
2022/01/15 04:12:49;;;;;;;10.93;4.30;;;;;;;-9.07;67.46;95725.31;4958250;28;20049;-83
2022/01/15 04:15:16;;;;;;;18.15;4.78;;;;;;;-9.00;67.86;95727.53;4959980;28;20042;-81
2022/01/15 04:17:47;;;;;;;7.88;4.15;;;;;;;-8.98;67.65;95731.72;4992925;28;20414;-80
2022/01/15 04:20:16;;;;;;;5.07;3.80;;;;;;;-9.00;67.81;95733.53;4976544;28;20053;-88
2022/01/15 04:22:42;;;;;;;5.88;3.95;;;;;;;-8.88;67.70;95742.31;4976812;28;20053;-79
2022/01/15 04:25:08;;;;;;;9.68;4.78;;;;;;;-8.83;67.17;95746.31;4975934;28;20046;-81
2022/01/15 04:27:34;;;;;;;6.38;3.55;;;;;;;-8.87;67.24;95734.47;4959812;28;20129;-80
2022/01/15 04:30:03;;;;;;;10.18;4.40;;;;;;;-8.82;67.19;95726.44;4928451;28;20050;-81
2022/01/15 04:32:30;;;;;;;7.95;4.53;;;;;;;-8.79;67.74;95728.00;4960888;28;20406;-79
2022/01/15 04:34:56;;;;;;;7.13;4.38;;;;;;;-8.74;67.63;95713.84;4976407;28;20455;-80
2022/01/15 04:37:24;;;;;;;5.72;3.80;;;;;;;-8.79;67.83;95713.31;4976145;28;20050;-81
2022/01/15 04:39:51;;;;;;;6.05;4.13;;;;;;;-8.64;67.99;95704.59;4974709;28;20046;-80
2022/01/15 04:42:20;;;;;;;13.63;5.15;;;;;;;-8.47;67.85;95713.06;4943158;28;20047;-78
2022/01/15 04:44:47;;;;;;;12.57;5.63;;;;;;;-8.34;67.55;95711.34;4941567;28;20049;-79
2022/01/15 04:47:13;;;;;;;9.45;5.00;;;;;;;-8.20;67.01;95719.03;4942705;28;20046;-79
2022/01/15 04:49:39;;;;;;;9.38;5.32;;;;;;;-8.13;66.81;95699.59;4959419;28;20068;-80
2022/01/15 04:52:06;;;;;;;13.77;5.22;;;;;;;-8.12;66.37;95716.00;4960002;28;20249;-79
2022/01/15 04:54:32;;;;;;;16.20;5.80;;;;;;;-8.09;66.70;95706.22;4945032;28;20045;-81
2022/01/15 04:56:58;;;;;;;9.23;4.93;;;;;;;-8.01;66.41;95702.31;4927474;28;20077;-80
2022/01/15 04:59:24;;;;;;;5.57;3.85;;;;;;;-8.04;66.28;95692.19;4926301;28;20046;-79
2022/01/15 05:01:51;;;;;;;9.88;5.35;;;;;;;-7.96;66.60;95692.50;4945801;28;20045;-85
2022/01/15 05:04:17;;;;;;;6.47;4.32;;;;;;;-7.89;66.09;95665.25;4940065;28;20039;-79
2022/01/15 05:06:43;;;;;;;9.25;5.00;;;;;;;-7.89;66.36;95654.88;4971446;28;20047;-78
2022/01/15 05:09:09;;;;;;;8.75;4.80;;;;;;;-7.63;67.87;95666.97;4973645;28;20057;-80
2022/01/15 05:11:59;;;;;;;14.55;5.82;;;;;;;-7.63;66.60;95651.41;4969176;28;20081;-80
2022/01/15 05:14:25;;;;;;;9.25;5.03;;;;;;;-7.47;68.31;95645.19;4958404;28;20494;-82
2022/01/15 05:16:51;;;;;;;9.05;4.88;;;;;;;-7.46;65.94;95642.47;4915006;28;20074;-77
2022/01/15 05:19:17;;;;;;;7.10;4.60;;;;;;;-7.45;65.71;95643.28;4978821;28;20047;-80
2022/01/15 05:21:43;;;;;;;5.72;3.72;;;;;;;-7.40;65.85;95642.06;4944604;28;20078;-80
2022/01/15 05:24:09;;;;;;;7.63;4.80;;;;;;;-7.37;65.01;95647.06;4960750;28;20054;-79
2022/01/15 05:26:35;;;;;;;11.25;5.68;;;;;;;-7.15;68.63;95651.56;4945161;28;20250;-86
2022/01/15 05:29:01;;;;;;;9.18;4.75;;;;;;;-6.62;70.32;95649.63;4914512;28;20403;-84
2022/01/15 05:31:27;;;;;;;8.38;4.55;;;;;;;-6.38;67.62;95654.00;4945103;28;20090;-81
2022/01/15 05:33:53;;;;;;;9.90;5.25;;;;;;;-6.44;63.99;95639.66;4949349;28;20521;-86
2022/01/15 05:36:19;;;;;;;7.32;4.65;;;;;;;-6.52;63.63;95633.38;4947066;28;20046;-75
2022/01/15 05:38:46;;;;;;;11.68;4.55;;;;;;;-6.58;63.50;95637.25;4963111;28;20065;-84
2022/01/15 05:41:12;;;;;;;9.40;5.68;;;;;;;-6.67;63.29;95641.31;4963381;28;20141;-79
2022/01/15 05:43:41;;;;;;;11.13;5.25;;;;;;;-6.66;63.12;95621.34;4979804;28;20050;-82
2022/01/15 05:46:07;;;;;;;9.10;5.47;;;;;;;-6.58;63.31;95607.81;4963302;28;20048;-79
2022/01/15 05:48:33;;;;;;;10.80;5.50;;;;;;;-6.63;63.48;95614.19;4962950;28;20038;-82
2022/01/15 05:50:59;;;;;;;14.45;5.45;;;;;;;-6.60;63.34;95613.97;4963045;28;20034;-79
2022/01/15 05:53:25;;;;;;;9.93;5.15;;;;;;;-6.55;63.27;95599.81;4946885;28;20189;-83
2022/01/15 05:55:51;;;;;;;16.13;5.82;;;;;;;-6.51;63.10;95585.66;4979636;28;20077;-92
2022/01/15 05:58:17;;;;;;;12.15;6.35;;;;;;;-6.57;64.11;95573.97;4931019;28;20049;-78
2022/01/15 06:00:43;;;;;;;6.15;4.60;;;;;;;-6.35;65.35;95562.84;4997065;28;20046;-86
2022/01/15 06:03:09;;;;;;;9.68;5.07;;;;;;;-6.41;65.06;95558.91;4960912;28;20051;-78
2022/01/15 06:05:35;;;;;;;11.45;4.88;;;;;;;-6.34;64.07;95564.50;4924479;28;20057;-87
2022/01/15 06:08:01;;;;;;;14.85;5.13;;;;;;;-6.21;64.11;95575.63;4947881;28;20053;-80
2022/01/15 06:10:27;;;;;;;10.52;5.32;;;;;;;-5.94;64.07;95582.31;5000795;28;20418;-82
2022/01/15 06:12:54;;;;;;;8.13;5.43;;;;;;;-5.78;63.46;95590.63;4997422;28;20418;-79
2022/01/15 06:15:19;;;;;;;7.80;5.05;;;;;;;-5.67;62.86;95585.44;4930958;28;20049;-81
2022/01/15 06:17:46;;;;;;;9.55;5.18;;;;;;;-5.72;63.11;95574.53;4962504;28;20046;-79
2022/01/15 06:20:13;;;;;;;9.07;5.05;;;;;;;-5.27;64.33;95587.59;4981095;28;20074;-82
2022/01/15 06:22:42;;;;;;;8.88;5.03;;;;;;;-5.27;62.65;95573.75;4955577;28;20050;-83
2022/01/15 06:25:08;;;;;;;11.80;5.10;;;;;;;-5.32;61.97;95563.72;4961926;28;20528;-83
2022/01/15 06:27:34;;;;;;;12.63;4.80;;;;;;;-5.40;62.24;95551.28;4994197;28;20042;-82
2022/01/15 06:30:00;;;;;;;7.55;4.63;;;;;;;-5.40;62.35;95546.09;5007417;28;20382;-91
2022/01/15 06:32:28;;;;;;;8.63;5.10;;;;;;;-5.41;62.64;95538.41;4963014;28;20069;-87
2022/01/15 06:34:54;;;;;;;12.73;5.30;;;;;;;-5.53;62.37;95534.13;4975910;28;20415;-88
2022/01/15 06:37:21;;;;;;;8.68;4.90;;;;;;;-5.58;62.68;95534.47;4980164;28;20414;-85
2022/01/15 06:39:47;;;;;;;8.57;4.63;;;;;;;-5.60;62.55;95528.59;4963361;28;20050;-83
2022/01/15 06:42:13;;;;;;;9.55;5.03;;;;;;;-5.69;63.18;95539.69;4979671;28;20052;-86
2022/01/15 06:44:39;;;;;;;10.30;4.88;;;;;;;-5.68;63.41;95536.97;4963152;28;20184;-85
2022/01/15 06:47:07;;;;;;;15.15;6.00;;;;;;;-5.71;63.59;95536.38;4978669;28;20085;-86
2022/01/15 06:49:33;;;;;;;15.63;4.65;;;;;;;-5.69;63.73;95540.50;4962688;28;20137;-89
2022/01/15 06:51:59;;;;;;;8.05;4.82;;;;;;;-5.71;63.89;95521.59;4949883;28;20053;-87
2022/01/15 06:54:25;;;;;;;12.23;5.38;;;;;;;-5.66;64.31;95527.25;4980249;28;20054;-87
2022/01/15 06:56:51;;;;;;;13.70;6.10;;;;;;;-5.59;64.56;95524.22;4946098;28;20046;-78
2022/01/15 06:59:18;;;;;;;9.70;5.55;;;;;;;-5.64;64.68;95512.38;4977254;28;20065;-81
2022/01/15 07:01:44;;;;;;;12.07;5.07;;;;;;;-5.71;64.85;95500.78;4945423;28;20494;-82
2022/01/15 07:04:10;;;;;;;10.60;5.70;;;;;;;-5.72;65.09;95511.28;4913233;28;20052;-92
2022/01/15 07:06:36;;;;;;;7.50;5.07;;;;;;;-5.62;64.97;95504.44;4932274;28;20038;-90
2022/01/15 07:09:03;;;;;;;9.05;5.07;;;;;;;-5.50;65.10;95493.09;4951274;28;20129;-91
2022/01/15 07:11:29;;;;;;;8.48;4.68;;;;;;;-5.37;65.26;95492.97;4916782;28;20086;-95
2022/01/15 07:13:55;;;;;;;8.13;4.78;;;;;;;-5.22;64.70;95483.97;4980293;28;20046;-90
2022/01/15 07:16:21;;;;;;;10.30;5.10;;;;;;;-5.24;64.73;95477.22;4979266;28;20054;-86
2022/01/15 07:18:47;;;;;;;8.40;5.22;;;;;;;-5.22;64.67;95491.78;4946796;28;20185;-87
2022/01/15 07:21:13;;;;;;;11.35;4.53;;;;;;;-5.21;64.75;95484.78;4961849;28;20077;-81
2022/01/15 07:23:39;;;;;;;6.72;4.00;;;;;;;-5.20;64.88;95468.22;4978656;28;20053;-84
2022/01/15 07:26:05;;;;;;;11.45;5.10;;;;;;;-5.27;65.93;95475.66;4913467;28;20505;-82
2022/01/15 07:28:31;;;;;;;7.75;4.70;;;;;;;-5.24;65.71;95478.03;4961243;28;20077;-83
2022/01/15 07:30:58;;;;;;;10.15;4.57;;;;;;;-5.27;66.07;95473.06;4977331;28;20049;-87
2022/01/15 07:33:24;;;;;;;11.88;5.88;;;;;;;-5.26;66.11;95469.53;4961163;28;20042;-89
2022/01/15 07:35:50;;;;;;;8.05;4.93;;;;;;;-5.19;66.45;95451.63;4961409;28;20042;-79
2022/01/15 07:38:17;;;;;;;12.13;5.50;;;;;;;-5.13;66.54;95458.97;4940053;29;20557;-92
2022/01/15 07:40:43;;;;;;;14.48;4.80;;;;;;;-5.10;66.55;95452.69;4911270;29;20483;-87
2022/01/15 07:43:10;;;;;;;7.55;4.70;;;;;;;-4.98;66.68;95464.72;4955840;28;20051;-87
2022/01/15 07:45:36;;;;;;;12.98;4.93;;;;;;;-4.98;66.58;95447.31;4949951;29;20043;-82
2022/01/15 07:48:02;;;;;;;10.98;5.22;;;;;;;-4.84;66.69;95445.41;4943759;29;20879;-90
2022/01/15 07:50:28;;;;;;;9.18;5.30;;;;;;;-4.80;66.49;95444.19;4952051;29;20499;-83
2022/01/15 07:52:54;;;;;;;10.63;5.05;;;;;;;-4.65;66.17;95454.19;4936671;29;20403;-87
2022/01/15 07:55:21;;;;;;;8.65;5.00;;;;;;;-4.76;66.59;95436.00;4936363;29;20081;-85
2022/01/15 07:57:49;;;;;;;7.80;5.22;;;;;;;-4.64;66.69;95428.94;4954482;29;20104;-90
2022/01/15 08:00:15;;;;;;;9.43;4.65;;;;;;;-4.68;66.41;95415.34;4920698;29;20107;-83
2022/01/15 08:02:41;;;;;;;11.60;5.00;;;;;;;-4.53;66.55;95425.47;4957338;29;20607;-82
2022/01/15 08:05:08;;;;;;;8.00;5.15;;;;;;;-4.41;66.36;95417.44;4938189;29;20052;-88
2022/01/15 08:07:35;;;;;;;9.32;5.50;;;;;;;-4.39;66.55;95406.91;4954228;29;20129;-88
2022/01/15 08:10:03;;;;;;;10.27;4.85;;;;;;;-4.32;66.21;95412.44;4919823;29;20495;-82
2022/01/15 08:12:30;;;;;;;9.13;4.97;;;;;;;-4.25;66.09;95388.34;4919857;29;20047;-83
2022/01/15 08:14:56;;;;;;;10.38;5.57;;;;;;;-4.03;65.86;95413.41;4953217;29;20499;-82
2022/01/15 08:17:22;;;;;;;9.55;5.15;;;;;;;-3.87;65.68;95406.88;4960768;28;20138;-89
2022/01/15 08:19:48;;;;;;;6.82;4.53;;;;;;;-3.91;67.68;95390.69;4944131;29;20073;-84
2022/01/15 08:22:14;;;;;;;14.35;5.32;;;;;;;-3.86;66.64;95391.13;4954661;29;20047;-78
2022/01/15 08:24:40;;;;;;;7.68;5.00;;;;;;;-3.77;66.06;95385.09;4956657;29;20054;-77
2022/01/15 08:27:06;;;;;;;6.57;4.13;;;;;;;-3.88;66.27;95393.03;4939544;28;20043;-81
2022/01/15 08:29:32;;;;;;;7.78;4.72;;;;;;;-3.84;66.26;95375.31;4936293;29;20483;-81
2022/01/15 08:31:58;;;;;;;8.57;4.57;;;;;;;-3.90;66.44;95363.66;4940076;29;20058;-83
2022/01/15 08:34:24;;;;;;;9.43;5.20;;;;;;;-3.70;66.82;95381.00;4923187;29;20051;-89
2022/01/15 08:36:50;;;;;;;8.65;5.13;;;;;;;-3.60;66.44;95372.41;4945231;29;20093;-83
2022/01/15 08:39:16;;;;;;;9.23;4.93;;;;;;;-3.62;66.47;95369.06;4955982;29;20055;-85
2022/01/15 08:41:48;;;;;;;8.52;4.13;;;;;;;-3.48;66.49;95360.88;4977875;28;20130;-89
2022/01/15 08:44:15;;;;;;;6.43;4.47;;;;;;;-3.39;66.40;95360.06;4914993;28;20050;-87
2022/01/15 08:46:41;;;;;;;12.45;6.65;;;;;;;-3.35;66.07;95344.94;4963663;28;20047;-87
2022/01/15 08:49:07;;;;;;;7.97;4.47;;;;;;;-3.15;65.96;95357.06;4963873;28;20077;-89
2022/01/15 08:51:33;;;;;;;8.52;4.50;;;;;;;-3.20;65.96;95352.28;4962552;28;20070;-85
2022/01/15 08:53:59;;;;;;;9.88;5.05;;;;;;;-3.21;65.50;95352.38;4986337;28;20098;-85
2022/01/15 08:56:25;;;;;;;6.88;4.30;;;;;;;-3.26;65.76;95338.91;4989742;28;20498;-89
2022/01/15 08:58:51;;;;;;;8.82;4.22;;;;;;;-3.38;66.17;95333.00;4960390;28;20058;-89
2022/01/15 09:01:17;;;;;;;7.47;4.10;;;;;;;-3.32;66.66;95329.84;4973260;29;20107;-91
2022/01/15 09:03:43;;;;;;;8.68;4.35;;;;;;;-3.29;66.88;95316.50;4945388;29;20059;-90
2022/01/15 09:06:09;;;;;;;7.38;4.53;;;;;;;-3.33;66.86;95317.75;4932337;29;20055;-91
2022/01/15 09:08:35;;;;;;;11.93;4.22;;;;;;;-3.25;66.82;95320.50;4934081;28;20047;-90
2022/01/15 09:11:02;;;;;;;7.43;4.28;;;;;;;-3.11;66.74;95326.28;4963487;28;20047;-91
2022/01/15 09:13:29;;;;;;;13.25;3.88;;;;;;;-3.29;67.39;95303.44;4950359;28;20043;-92
2022/01/15 09:15:56;;;;;;;5.18;3.63;;;;;;;-3.21;68.03;95300.97;4977992;28;20050;-94
2022/01/15 09:18:21;;;;;;;8.13;4.55;;;;;;;-3.21;67.82;95306.19;4943238;28;20050;-89
2022/01/15 09:20:47;;;;;;;7.97;4.28;;;;;;;-3.10;68.06;95301.81;4959326;28;20175;-88
2022/01/15 09:23:13;;;;;;;7.00;3.97;;;;;;;-3.08;68.35;95294.66;4976500;28;20568;-88
2022/01/15 09:30:12;;;;;;;5.72;3.70;;;;;;;-2.88;68.10;95279.78;5103992;28;20043;-92
2022/01/15 09:32:43;;;;;;;6.55;3.30;;;;;;;-2.87;67.90;95284.88;5080375;28;20081;-92
2022/01/15 09:35:09;;;;;;;6.97;3.80;;;;;;;-2.97;68.05;95281.44;5095611;28;20035;-89
2022/01/15 09:37:35;;;;;;;5.20;3.70;;;;;;;-2.87;68.56;95274.41;5114048;28;20059;-94
2022/01/15 09:40:02;;;;;;;5.10;3.30;;;;;;;-2.91;68.69;95262.59;5063360;28;20120;-95
2022/01/15 09:42:28;;;;;;;6.35;3.88;;;;;;;-2.78;68.66;95270.16;5117000;28;20097;-88
2022/01/15 09:44:54;;;;;;;6.97;3.97;;;;;;;-2.75;68.78;95264.63;5115281;28;20055;-87
2022/01/15 09:47:21;;;;;;;11.07;4.15;;;;;;;-2.72;68.73;95259.94;5081517;28;20080;-95
2022/01/15 09:49:47;;;;;;;4.88;3.00;;;;;;;-2.61;69.29;95265.97;5112401;28;20044;-94
2022/01/15 09:52:15;;;;;;;8.38;4.57;;;;;;;-2.47;69.09;95252.44;5077779;28;20039;-93
2022/01/15 09:54:41;;;;;;;5.38;3.63;;;;;;;-2.51;69.30;95256.31;5110542;28;20047;-93
2022/01/15 09:57:07;;;;;;;6.00;3.97;;;;;;;-2.52;69.43;95249.41;5111368;28;20551;-91
2022/01/15 09:59:33;;;;;;;7.90;4.03;;;;;;;-2.47;69.45;95258.50;5109485;28;20487;-89
2022/01/15 10:02:02;;;;;;;5.50;3.70;;;;;;;-2.27;69.18;95247.94;5092418;28;20051;-88
2022/01/15 10:04:32;;;;;;;6.45;3.55;;;;;;;-2.27;68.89;95237.50;5111389;28;20048;-88
2022/01/15 10:07:17;;;;;;;4.35;3.47;;;;;;;-2.30;69.58;95243.00;5115687;28;20499;-89
2022/01/15 10:09:45;;;;;;;5.55;3.50;;;;;;;-2.26;69.72;95234.75;5094134;28;20043;-93
2022/01/15 10:12:11;;;;;;;4.80;3.10;;;;;;;-2.21;69.85;95216.00;5098022;28;20043;-92
2022/01/15 10:14:39;;;;;;;5.35;3.30;;;;;;;-2.10;69.64;95222.84;5097880;28;20129;-84
2022/01/15 10:17:20;;;;;;;5.45;3.40;;;;;;;-1.92;70.03;95228.91;5096576;28;20043;-90
2022/01/15 10:19:47;;;;;;;3.88;3.20;;;;;;;-1.98;69.92;95219.03;5096447;28;20059;-88
2022/01/15 10:22:19;;;;;;;5.13;3.33;;;;;;;-2.02;69.71;95215.88;5126423;28;20036;-83
2022/01/15 10:24:56;;;;;;;4.93;2.55;;;;;;;-1.97;70.22;95212.81;5092230;28;20048;-80
2022/01/15 10:27:32;;;;;;;3.30;2.83;;;;;;;-2.15;70.85;95204.94;5091107;28;20063;-86
2022/01/15 10:30:22;;;;;;;4.45;2.83;;;;;;;-2.04;71.16;95209.16;5108632;28;20047;-87
2022/01/15 10:33:02;;;;;;;6.32;3.13;;;;;;;-2.07;71.47;95196.34;5074608;28;20043;-84
2022/01/15 10:35:36;;;;;;;3.72;2.83;;;;;;;-2.08;71.76;95190.28;5109186;28;20466;-82
2022/01/15 10:38:07;;;;;;;4.63;3.35;;;;;;;-2.05;71.97;95200.47;5064934;28;20043;-84
2022/01/15 10:40:46;;;;;;;4.68;2.92;;;;;;;-1.92;71.67;95196.69;5044159;28;20039;-80
2022/01/15 10:43:15;;;;;;;;;;;;;;;-1.92;72.11;95189.63;5094404;28;20097;-82
2022/01/15 10:45:56;;;;;;;4.80;2.72;;;;;;;-1.84;71.95;95189.75;5077692;28;19945;-87
2022/01/15 10:48:23;;;;;;;4.47;2.63;;;;;;;-1.83;72.81;95178.31;5061523;28;20057;-87
2022/01/15 10:50:56;;;;;;;3.17;2.40;;;;;;;-1.89;72.98;95184.13;5096732;28;20052;-87
2022/01/15 10:53:39;;;;;;;4.90;2.85;;;;;;;-1.89;73.31;95178.88;5061317;28;20399;-87
2022/01/15 10:56:14;;;;;;;3.47;2.60;;;;;;;-1.83;73.41;95188.78;5060171;28;20044;-87
2022/01/15 10:58:43;;;;;;;4.45;3.13;;;;;;;-1.83;74.05;95199.25;5065961;28;20064;-87
2022/01/15 11:01:13;;;;;;;4.10;2.58;;;;;;;-1.87;74.48;95170.91;5055096;28;20048;-91
2022/01/15 11:03:46;;;;;;;3.70;2.50;;;;;;;-1.78;74.33;95168.19;5061397;28;20139;-91
2022/01/15 11:06:12;;;;;;;7.15;2.92;;;;;;;-1.75;74.27;95172.31;5079523;28;20082;-88
2022/01/15 11:08:39;;;;;;;4.65;2.38;;;;;;;-1.68;74.72;95175.16;5075251;28;20055;-88
2022/01/15 11:11:06;;;;;;;9.32;2.67;;;;;;;-1.54;74.54;95167.59;5094317;28;20127;-92
2022/01/15 11:13:43;;;;;;;3.20;2.90;;;;;;;-1.45;74.18;95175.53;5061937;28;20131;-85
2022/01/15 11:16:14;;;;;;;4.47;2.70;;;;;;;-1.36;74.74;95154.47;5062301;28;20031;-88
2022/01/15 11:18:49;;;;;;;6.15;2.88;;;;;;;-1.28;73.84;95157.19;5095782;28;20044;-87
2022/01/15 11:21:18;;;;;;;4.22;2.92;;;;;;;-1.29;74.32;95155.50;5096544;28;20048;-86
2022/01/15 11:23:44;;;;;;;4.53;2.80;;;;;;;-1.12;74.17;95142.53;5063888;28;20036;-87
2022/01/15 11:26:12;;;;;;;4.72;2.97;;;;;;;-1.10;73.80;95143.19;5077086;28;20793;-87
2022/01/15 11:28:38;;;;;;;4.50;2.80;;;;;;;-0.99;73.70;95156.03;5044611;28;20396;-86
2022/01/15 11:31:10;;;;;;;6.05;3.33;;;;;;;-0.99;74.00;95150.78;5095627;28;20051;-93
2022/01/15 11:33:47;;;;;;;16.15;3.08;;;;;;;-0.96;73.76;95158.34;5096042;28;20043;-91
2022/01/15 11:36:37;;;;;;;4.60;2.78;;;;;;;-1.07;74.77;95158.63;5060858;28;20063;-86
2022/01/15 11:39:03;;;;;;;;;;;;;;;-0.97;74.44;95154.09;5061456;28;20566;-85
2022/01/15 11:41:29;;;;;;;3.45;2.50;;;;;;;-0.91;73.65;95163.94;5094673;28;20383;-86
2022/01/15 11:43:56;;;;;;;5.57;2.65;;;;;;;-0.97;74.21;95154.09;5094893;28;20044;-87
2022/01/15 11:46:39;;;;;;;7.70;3.00;;;;;;;-0.93;74.61;95150.19;5060152;28;20143;-86
2022/01/15 11:49:29;;;;;;;4.90;3.13;;;;;;;-0.83;74.52;95152.69;5077891;28;20051;-86
2022/01/15 11:51:56;;;;;;;12.35;3.28;;;;;;;-0.77;74.42;95160.75;5066391;28;20052;-86
2022/01/15 11:54:22;;;;;;;8.63;2.83;;;;;;;-0.68;74.74;95147.69;5093286;28;20040;-87
2022/01/15 11:56:49;;;;;;;18.92;3.65;;;;;;;-0.70;75.34;95154.91;5093215;28;20047;-84
2022/01/15 11:59:27;;;;;;;6.38;2.72;;;;;;;-0.72;76.01;95155.03;5076045;28;20043;-83
2022/01/15 12:01:57;;;;;;;3.47;2.38;;;;;;;-0.84;76.70;95149.25;5094797;28;20069;-81
2022/01/15 12:04:29;;;;;;;4.85;2.70;;;;;;;-0.71;77.19;95158.47;5076863;28;20145;-80